Time;durP1;ratioP1;P1;durP2;ratioP2;P2;SDS_P1;SDS_P2;PMS_P1;PMS_P2;Temp;Humidity;BMP_temperature;BMP_pressure;BME280_temperature;BME280_humidity;BME280_pressure;Samples;Min_cycle;Max_cycle;Signal;HPM_P1;HPM_P2
2021/03/21 00:00:54;;;;;;;4.10;2.20;;;;;;;9.94;70.48;101980.44;4453891;26;20179;-76
2021/03/21 00:03:21;;;;;;;7.57;2.70;;;;;;;9.92;70.53;101973.63;4441837;32;20092;-77
2021/03/21 00:05:47;;;;;;;6.12;2.80;;;;;;;9.90;70.43;101970.41;4429561;32;20095;-76
2021/03/21 00:08:19;;;;;;;6.80;2.45;;;;;;;9.77;70.79;101972.84;4442596;32;20136;-77
2021/03/21 00:10:49;;;;;;;5.37;2.80;;;;;;;9.81;71.14;101978.44;4444536;32;20069;-79
2021/03/21 00:13:17;;;;;;;6.45;2.55;;;;;;;9.77;71.09;101977.66;4442018;32;20548;-79
2021/03/21 00:15:42;;;;;;;8.20;3.20;;;;;;;9.77;70.94;101977.66;4441822;32;20115;-79
2021/03/21 00:18:09;;;;;;;5.85;2.70;;;;;;;9.74;71.12;101970.84;4441782;32;20053;-79
2021/03/21 00:20:36;;;;;;;8.30;2.85;;;;;;;9.60;71.72;101968.03;4440077;32;20102;-77
2021/03/21 00:23:03;;;;;;;5.15;2.92;;;;;;;9.55;71.85;101965.59;4442363;32;20017;-80
2021/03/21 00:25:31;;;;;;;9.30;2.97;;;;;;;9.55;71.80;101976.84;4441096;32;20076;-79
2021/03/21 00:27:57;;;;;;;9.18;3.37;;;;;;;9.55;71.73;101974.03;4441776;32;20069;-78
2021/03/21 00:30:30;;;;;;;6.47;3.33;;;;;;;9.50;71.94;101980.06;4433064;32;20080;-76
2021/03/21 00:32:55;;;;;;;6.00;3.47;;;;;;;9.51;71.80;101978.09;4430438;32;20366;-77
2021/03/21 00:35:21;;;;;;;7.47;3.08;;;;;;;9.48;72.26;101978.87;4417725;32;20426;-79
2021/03/21 00:37:48;;;;;;;10.25;3.92;;;;;;;9.55;72.35;101973.25;4429796;32;20133;-78
2021/03/21 00:40:18;;;;;;;8.15;3.85;;;;;;;9.58;72.13;101972.44;4431994;32;20037;-77
2021/03/21 00:42:43;;;;;;;6.70;3.65;;;;;;;9.65;71.93;101976.06;4418546;32;20083;-79
2021/03/21 00:45:11;;;;;;;8.38;2.92;;;;;;;9.67;71.61;101976.44;4431345;32;20085;-77
2021/03/21 00:47:37;;;;;;;9.10;3.35;;;;;;;9.69;72.02;101976.84;4430999;32;20100;-79
2021/03/21 00:50:07;;;;;;;6.75;3.33;;;;;;;9.76;71.95;101982.47;4431162;32;20219;-78
2021/03/21 00:52:32;;;;;;;5.28;3.08;;;;;;;9.81;71.84;101981.25;4429296;32;20056;-79
2021/03/21 00:54:58;;;;;;;6.82;3.37;;;;;;;9.89;71.64;101986.50;4432781;32;20034;-76
2021/03/21 00:57:24;;;;;;;8.57;3.15;;;;;;;9.95;71.44;101984.84;4419077;32;20053;-77
2021/03/21 00:59:50;;;;;;;7.50;3.35;;;;;;;10.01;71.20;101985.25;4418811;32;20071;-79
2021/03/21 01:02:16;;;;;;;12.73;3.65;;;;;;;10.07;71.05;101987.25;4430714;32;20148;-77
2021/03/21 01:04:42;;;;;;;8.30;3.45;;;;;;;10.13;70.69;101989.69;4431586;32;20064;-77
2021/03/21 01:07:08;;;;;;;10.15;3.47;;;;;;;10.20;70.54;101992.47;4418012;32;20445;-80
2021/03/21 01:09:33;;;;;;;9.63;3.70;;;;;;;10.25;70.29;102001.31;4431109;32;20030;-80
2021/03/21 01:11:59;;;;;;;7.07;3.30;;;;;;;10.22;70.07;101998.50;4432400;32;20090;-78
2021/03/21 01:14:25;;;;;;;8.30;2.72;;;;;;;10.27;70.23;102014.97;4431845;32;20446;-77
2021/03/21 01:16:50;;;;;;;6.03;3.00;;;;;;;10.35;69.90;102011.72;4432248;32;20068;-80
2021/03/21 01:19:20;;;;;;;3.80;2.33;;;;;;;10.44;69.40;102002.84;4416167;32;20029;-78
2021/03/21 01:21:46;;;;;;;3.40;1.90;;;;;;;10.52;69.35;102012.87;4432065;32;20030;-78
2021/03/21 01:24:14;;;;;;;3.40;1.75;;;;;;;10.55;69.00;102017.69;4430138;32;20042;-77
2021/03/21 01:26:40;;;;;;;7.32;2.33;;;;;;;10.68;68.71;102014.00;4432679;32;20112;-77
2021/03/21 01:29:07;;;;;;;2.58;1.48;;;;;;;10.76;68.27;102023.22;4432545;32;20081;-79
2021/03/21 01:31:33;;;;;;;3.28;1.80;;;;;;;10.77;68.10;102022.81;4432020;32;20093;-79
2021/03/21 01:33:59;;;;;;;2.40;1.60;;;;;;;10.90;67.81;102018.34;4431891;32;20141;-77
2021/03/21 01:36:28;;;;;;;2.92;2.00;;;;;;;11.04;67.27;102023.06;4430922;32;20399;-79
2021/03/21 01:38:56;;;;;;;2.55;1.95;;;;;;;11.15;66.88;102026.66;4431189;32;20041;-77
2021/03/21 01:41:29;;;;;;;4.50;2.15;;;;;;;11.21;66.84;102033.47;4431178;32;20045;-79
2021/03/21 01:43:55;;;;;;;5.10;2.00;;;;;;;11.32;66.23;102028.56;4432146;32;20029;-79
2021/03/21 01:49:20;;;;;;;3.33;1.73;;;;;;;11.82;65.01;102027.78;3985483;32;15023977;-77
2021/03/21 01:51:47;;;;;;;4.68;1.95;;;;;;;11.82;65.01;102027.78;4442068;32;20095;-79
2021/03/21 01:54:17;;;;;;;3.83;1.92;;;;;;;11.48;65.56;102035.28;4439961;32;20060;-76
2021/03/21 01:56:44;;;;;;;8.48;2.20;;;;;;;11.37;65.35;102034.56;4441925;32;20264;-78
2021/03/21 01:59:16;;;;;;;3.15;1.75;;;;;;;11.22;66.27;102037.88;4439519;32;20034;-79
2021/03/21 02:01:42;;;;;;;5.12;2.22;;;;;;;11.36;65.63;102032.97;4435864;32;20078;-77
2021/03/21 02:04:09;;;;;;;4.75;2.12;;;;;;;11.37;65.58;102022.47;4436461;32;20144;-78
2021/03/21 02:17:18;;;;;;;7.37;2.17;;;;;;;12.11;63.48;102022.69;3987132;32;15022429;-76
2021/03/21 02:20:12;;;;;;;6.43;2.33;;;;;;;12.11;63.48;102022.69;4443141;32;20029;-77
2021/03/21 02:22:48;;;;;;;4.10;2.08;;;;;;;11.69;64.30;102023.09;4442598;32;20120;-77
2021/03/21 02:25:44;;;;;;;5.40;2.40;;;;;;;11.62;64.34;102012.66;4444207;32;20377;-80
2021/03/21 02:28:36;;;;;;;8.20;2.85;;;;;;;11.53;64.55;102019.94;4443207;32;20102;-77
2021/03/21 02:31:09;;;;;;;5.03;2.45;;;;;;;11.45;64.46;102019.19;4442899;32;20079;-78
2021/03/21 02:33:48;;;;;;;10.15;2.37;;;;;;;11.40;64.79;102019.66;4443752;32;20052;-80
2021/03/21 02:36:19;;;;;;;7.65;2.37;;;;;;;11.38;64.75;102012.78;4441014;32;20072;-78
2021/03/21 02:39:24;;;;;;;10.30;3.35;;;;;;;11.35;64.98;102019.28;4443979;32;20113;-77
2021/03/21 02:41:56;;;;;;;5.43;2.78;;;;;;;11.13;65.25;102026.25;4443218;32;20028;-80
2021/03/21 02:44:29;;;;;;;7.62;2.70;;;;;;;11.14;65.55;102028.66;4440703;32;20092;-78
2021/03/21 02:47:00;;;;;;;7.20;2.62;;;;;;;11.15;65.39;102032.28;4445061;32;20053;-77
2021/03/21 02:49:31;;;;;;;7.72;2.87;;;;;;;11.23;65.41;102029.00;4443310;32;20029;-78
2021/03/21 02:52:03;;;;;;;7.80;2.65;;;;;;;11.27;65.31;102027.00;4435939;32;20094;-77
2021/03/21 02:54:34;;;;;;;7.00;2.60;;;;;;;11.41;65.10;102028.88;4436934;32;20204;-77
2021/03/21 02:57:11;;;;;;;7.55;2.60;;;;;;;11.48;64.68;102031.66;4442870;32;20139;-77
2021/03/21 02:59:41;;;;;;;6.72;2.12;;;;;;;11.51;64.37;102028.81;4443226;32;20156;-78
2021/03/21 03:02:13;;;;;;;6.60;2.75;;;;;;;11.53;64.16;102034.84;4432161;32;20097;-78
2021/03/21 03:04:48;;;;;;;7.72;2.60;;;;;;;11.47;64.00;102038.50;4426708;32;20513;-79
2021/03/21 03:07:19;;;;;;;;;;;;;;;11.61;63.97;102032.78;4425679;32;20069;-79
2021/03/21 03:09:53;;;;;;;6.10;2.80;;;;;;;11.60;63.70;102034.00;4425393;32;19929;-76
2021/03/21 03:12:25;;;;;;;9.23;2.93;;;;;;;11.70;63.54;102033.97;4422656;32;20534;-78
2021/03/21 03:14:51;;;;;;;5.57;2.58;;;;;;;11.70;63.31;102027.50;4427414;32;20184;-78
2021/03/21 03:30:35;;;;;;;6.28;1.87;;;;;;;12.44;61.32;102043.72;3983666;32;15023173;-78
2021/03/21 03:33:03;;;;;;;4.78;2.05;;;;;;;12.44;61.32;102043.72;4443285;32;20076;-77
2021/03/21 03:35:28;;;;;;;9.95;2.35;;;;;;;12.10;61.19;102033.16;4441975;32;20061;-77
2021/03/21 03:37:54;;;;;;;6.40;2.10;;;;;;;12.05;61.76;102033.63;4439674;32;20136;-77
2021/03/21 03:40:21;;;;;;;6.53;2.17;;;;;;;12.00;61.55;102044.56;4440935;32;20099;-77
2021/03/21 03:45:41;;;;;;;8.45;2.40;;;;;;;12.07;61.65;102047.31;4006403;31;15017525;-77
2021/03/21 03:48:40;;;;;;;6.82;2.30;;;;;;;12.06;61.69;102040.09;4446827;32;20491;-76
2021/03/21 03:56:33;;;;;;;10.80;2.28;;;;;;;12.37;60.73;102052.25;3986062;32;15022945;-79
2021/03/21 03:59:22;;;;;;;6.60;2.35;;;;;;;12.37;60.73;102052.25;4440887;32;20576;-78
2021/03/21 04:01:57;;;;;;;6.55;2.20;;;;;;;11.91;61.67;102047.06;4431110;32;20033;-79
2021/03/21 04:09:49;;;;;;;6.03;1.90;;;;;;;12.38;60.89;102042.56;3984800;32;15028118;-77
2021/03/21 04:12:22;;;;;;;7.93;2.10;;;;;;;12.38;60.89;102042.56;4441978;32;20458;-78
2021/03/21 04:14:54;;;;;;;9.88;2.30;;;;;;;11.90;61.65;102040.63;4440546;32;20514;-77
2021/03/21 04:17:29;;;;;;;10.77;2.20;;;;;;;11.87;61.68;102043.47;4442208;32;20073;-78
2021/03/21 04:20:02;;;;;;;9.23;2.50;;;;;;;11.90;61.70;102034.97;4440523;32;20099;-77
2021/03/21 04:22:32;;;;;;;11.10;1.95;;;;;;;11.79;61.47;102031.44;4440773;32;20130;-78
2021/03/21 04:25:03;;;;;;;10.75;2.00;;;;;;;11.83;61.47;102034.22;4443221;32;20090;-80
2021/03/21 04:27:35;;;;;;;6.95;2.03;;;;;;;11.69;61.47;102029.50;4441017;32;20380;-79
2021/03/21 04:32:43;;;;;;;14.38;2.42;;;;;;;12.12;61.35;102029.91;3975376;32;15026792;-79
2021/03/21 04:35:14;;;;;;;14.07;2.22;;;;;;;12.12;61.35;102029.91;4429961;32;20045;-76
2021/03/21 04:37:45;;;;;;;11.65;1.90;;;;;;;11.62;62.13;102023.94;4427542;32;20473;-78
2021/03/21 04:40:14;;;;;;;11.00;1.83;;;;;;;11.62;62.42;102031.59;4427143;32;20383;-78
2021/03/21 04:45:27;;;;;;;15.77;2.80;;;;;;;12.04;60.97;102034.03;4457675;31;20045;-76
2021/03/21 04:48:00;;;;;;;17.55;3.15;;;;;;;12.04;60.97;102034.03;3981672;32;20111;-77
2021/03/21 04:50:26;;;;;;;15.25;2.00;;;;;;;11.67;62.29;102029.16;4443968;32;20034;-77
2021/03/21 04:55:40;;;;;;;11.60;2.25;;;;;;;12.10;61.62;102029.56;3984146;32;15022470;-79
2021/03/21 04:58:30;;;;;;;11.60;2.22;;;;;;;12.10;61.62;102029.56;4431687;32;20077;-80
2021/03/21 05:01:02;;;;;;;15.43;2.45;;;;;;;11.54;62.23;102021.56;4427867;32;20074;-78
2021/03/21 05:03:36;;;;;;;9.85;1.90;;;;;;;11.55;62.46;102031.62;4420791;32;20057;-76
2021/03/21 05:06:14;;;;;;;11.82;1.90;;;;;;;11.55;62.51;102029.59;4414551;32;20077;-77
2021/03/21 05:08:51;;;;;;;11.27;2.25;;;;;;;11.56;62.80;102030.37;4416602;32;20064;-77
2021/03/21 05:11:18;;;;;;;10.57;2.22;;;;;;;11.60;62.73;102031.19;4414223;32;20107;-76
2021/03/21 05:13:54;;;;;;;13.32;2.75;;;;;;;11.63;62.70;102033.22;4418589;32;20073;-77
2021/03/21 05:16:39;;;;;;;10.85;2.97;;;;;;;11.65;62.61;102036.41;4413644;32;20070;-78
2021/03/21 05:19:24;;;;;;;8.15;2.05;;;;;;;11.70;62.49;102039.59;4415345;32;20037;-77
2021/03/21 05:21:57;;;;;;;16.62;2.10;;;;;;;11.71;62.50;102037.56;4415700;32;20041;-77
2021/03/21 05:24:28;;;;;;;15.45;2.33;;;;;;;11.68;62.42;102042.03;4415617;32;20411;-77
2021/03/21 05:27:05;;;;;;;8.57;2.20;;;;;;;11.74;62.41;102050.81;4417941;32;20038;-77
2021/03/21 05:32:23;;;;;;;10.07;2.60;;;;;;;12.30;61.34;102053.13;3985376;32;15022573;-76
2021/03/21 05:34:52;;;;;;;14.85;2.65;;;;;;;12.30;61.34;102053.13;4441632;32;20301;-77
2021/03/21 05:43:22;;;;;;;9.00;2.45;;;;;;;12.66;60.03;102068.13;3987273;32;15024525;-78
2021/03/21 06:06:04;;;;;;;9.77;3.05;;;;;;;12.42;60.81;102094.16;3984714;32;15026484;-76
2021/03/21 06:11:57;;;;;;;16.33;2.72;;;;;;;12.19;61.07;102103.25;3985076;32;15038381;-77
2021/03/21 06:39:48;;;;;;;15.00;2.67;;;;;;;12.29;58.20;102115.66;3985266;32;15027962;-77
2021/03/21 06:42:54;;;;;;;9.70;1.70;;;;;;;12.29;58.20;102115.66;4440993;32;20041;-78
2021/03/21 06:53:52;;;;;;;21.05;4.10;;;;;;;12.12;58.70;102139.97;3984162;32;15025071;-78
2021/03/21 07:08:00;;;;;;;16.05;3.00;;;;;;;11.86;59.34;102141.41;3984531;32;15023564;-76
2021/03/21 07:13:43;;;;;;;11.20;2.77;;;;;;;12.32;58.68;102151.50;3984593;31;15015656;-79
2021/03/21 07:19:24;;;;;;;15.85;2.90;;;;;;;12.25;58.68;102157.22;3984600;32;15026439;-78
2021/03/21 07:22:29;;;;;;;17.60;3.30;;;;;;;12.25;58.68;102157.22;4441932;32;20073;-80
2021/03/21 07:27:58;;;;;;;13.52;3.80;;;;;;;12.05;56.92;102165.44;3983063;32;15025910;-76
2021/03/21 07:36:27;;;;;;;18.62;3.30;;;;;;;11.84;56.54;102157.12;3985688;32;15027144;-78
2021/03/21 07:47:59;;;;;;;21.83;3.62;;;;;;;12.26;55.94;102178.59;3987873;32;15025817;-77
2021/03/21 07:50:35;;;;;;;15.15;3.40;;;;;;;12.26;55.94;102178.59;4441161;32;20069;-78
2021/03/21 07:58:44;;;;;;;30.98;4.05;;;;;;;12.48;55.03;102169.53;3985637;32;15025242;-79
2021/03/21 08:01:10;;;;;;;19.12;3.92;;;;;;;12.48;55.03;102169.53;4428366;32;20132;-78
2021/03/21 08:04:01;;;;;;;16.30;3.70;;;;;;;12.05;55.29;102162.63;4421689;32;20052;-79
2021/03/21 08:11:44;;;;;;;16.42;3.97;;;;;;;12.36;55.05;102169.25;3979463;32;15026257;-77
2021/03/21 08:14:15;;;;;;;21.90;4.20;;;;;;;12.31;55.07;102167.66;4432029;32;20109;-77
2021/03/21 08:16:48;;;;;;;26.60;4.50;;;;;;;12.28;54.98;102182.63;4434945;32;20064;-76
2021/03/21 08:19:22;;;;;;;17.08;3.92;;;;;;;12.27;55.00;102181.00;4434610;32;20111;-76
2021/03/21 08:21:48;;;;;;;17.05;4.20;;;;;;;12.26;54.86;102172.94;4432307;32;20034;-78
2021/03/21 08:24:19;;;;;;;19.62;4.12;;;;;;;12.31;55.03;102186.63;4430735;32;20091;-77
2021/03/21 08:26:45;;;;;;;17.95;4.00;;;;;;;12.59;54.67;102183.53;4433425;32;20065;-79
2021/03/21 08:29:19;;;;;;;19.08;3.53;;;;;;;12.69;54.45;102189.09;4432742;32;20093;-78
2021/03/21 08:32:00;;;;;;;25.52;5.12;;;;;;;12.82;54.15;102178.09;4435156;32;20065;-80
2021/03/21 08:37:16;;;;;;;22.95;6.00;;;;;;;13.18;54.67;102184.97;3956647;32;15724303;-79
2021/03/21 08:39:45;;;;;;;19.65;5.40;;;;;;;13.18;54.67;102184.97;4432423;32;20022;-77
2021/03/21 08:42:29;;;;;;;20.48;4.72;;;;;;;12.75;55.24;102178.94;4435255;32;20482;-79
2021/03/21 08:45:36;;;;;;;19.80;4.53;;;;;;;12.81;55.45;102182.91;4436055;32;20098;-79
2021/03/21 08:50:41;;;;;;;19.00;3.87;;;;;;;12.90;55.49;102173.94;3983373;32;15022768;-80
2021/03/21 08:53:43;;;;;;;21.20;4.45;;;;;;;12.88;54.88;102173.56;4433341;32;20075;-77
2021/03/21 08:56:18;;;;;;;16.37;3.50;;;;;;;13.09;54.44;102170.53;4431356;32;20046;-76
2021/03/21 08:58:47;;;;;;;23.12;3.83;;;;;;;13.16;53.89;102164.81;4440099;32;20073;-77
2021/03/21 09:01:18;;;;;;;19.30;3.92;;;;;;;13.30;53.71;102162.59;4433086;32;20068;-81
2021/03/21 09:03:45;;;;;;;21.52;4.07;;;;;;;13.46;53.71;102171.28;4426471;32;20041;-77
2021/03/21 09:06:26;;;;;;;20.00;4.15;;;;;;;13.61;53.05;102164.22;4425252;32;20084;-78
2021/03/21 09:08:52;;;;;;;17.70;3.97;;;;;;;13.81;52.44;102165.13;4426376;32;20122;-78
2021/03/21 09:11:33;;;;;;;21.73;5.05;;;;;;;13.88;52.16;102164.22;4425683;32;20042;-80
2021/03/21 09:14:04;;;;;;;20.00;4.12;;;;;;;14.08;51.96;102165.09;4425959;32;20018;-77
2021/03/21 09:16:30;;;;;;;17.12;3.75;;;;;;;14.28;51.68;102162.41;4425834;32;20126;-78
2021/03/21 09:19:16;;;;;;;19.05;4.07;;;;;;;14.16;51.26;102157.31;4427621;32;20123;-77
2021/03/21 09:21:46;;;;;;;18.27;4.15;;;;;;;14.41;50.92;102163.38;4426272;32;20065;-80
2021/03/21 09:24:32;;;;;;;23.80;4.20;;;;;;;14.56;50.43;102162.72;4422724;32;20077;-80
2021/03/21 09:27:30;;;;;;;27.00;4.07;;;;;;;14.71;49.76;102164.06;4425397;32;20533;-79
2021/03/21 09:29:58;;;;;;;21.77;3.83;;;;;;;14.45;50.19;102166.97;4425646;32;20037;-81
2021/03/21 09:32:29;;;;;;;18.92;4.25;;;;;;;14.56;50.06;102154.22;4427598;32;20099;-77
2021/03/21 09:35:22;;;;;;;25.85;5.07;;;;;;;14.69;49.40;102148.72;4426493;32;20077;-77
2021/03/21 09:37:53;;;;;;;19.58;5.10;;;;;;;14.45;50.36;102149.97;4425767;32;20034;-78
2021/03/21 09:40:31;;;;;;;22.30;6.35;;;;;;;15.04;49.02;102160.16;4426539;32;20100;-79
2021/03/21 09:42:58;;;;;;;22.10;6.47;;;;;;;15.14;48.86;102161.19;4427177;32;20081;-77
2021/03/21 09:45:24;;;;;;;24.95;6.12;;;;;;;15.23;48.75;102161.41;4427535;32;20896;-80
2021/03/21 09:56:22;;;;;;;22.40;6.32;;;;;;;16.39;45.96;102153.91;3981051;32;15078211;-80
2021/03/21 09:59:23;;;;;;;27.50;6.68;;;;;;;16.39;45.96;102153.91;4438233;32;20528;-81
2021/03/21 10:01:59;;;;;;;27.87;7.57;;;;;;;16.14;46.20;102158.59;4428985;32;21079;-79
2021/03/21 10:07:22;;;;;;;29.77;6.32;;;;;;;16.00;45.92;102148.37;3981985;32;15031091;-79
2021/03/21 10:09:49;;;;;;;22.30;6.72;;;;;;;16.00;45.92;102148.37;4434707;32;20107;-77
2021/03/21 10:12:16;;;;;;;22.15;6.47;;;;;;;15.20;47.81;102146.09;4438172;32;20034;-80
2021/03/21 10:14:48;;;;;;;21.42;6.47;;;;;;;15.13;47.76;102149.06;4435121;32;20652;-79
2021/03/21 10:19:56;;;;;;;20.05;5.40;;;;;;;14.94;48.65;102154.72;3982115;32;15023074;-80
2021/03/21 10:28:39;;;;;;;20.48;6.00;;;;;;;15.39;47.52;102133.97;3982492;32;15024888;-79
2021/03/21 10:31:33;;;;;;;35.03;7.43;;;;;;;15.39;47.52;102133.97;4440409;32;20764;-79
2021/03/21 10:42:37;;;;;;;18.08;5.65;;;;;;;16.50;45.17;102122.38;3994199;31;15019226;-80
2021/03/21 10:45:06;;;;;;;18.65;5.35;;;;;;;16.50;45.17;102122.38;4453628;32;20164;-77
2021/03/21 10:56:01;;;;;;;19.27;5.20;;;;;;;17.21;43.92;102125.63;3985027;32;15025417;-78
2021/03/21 10:58:38;;;;;;;17.98;4.65;;;;;;;17.21;43.92;102125.63;4440343;32;20113;-80
2021/03/21 11:06:46;;;;;;;21.65;4.97;;;;;;;17.25;43.37;102125.53;3983921;32;15025218;-79
2021/03/21 11:09:16;;;;;;;18.00;4.87;;;;;;;17.25;43.37;102125.53;4440576;32;20080;-79
2021/03/21 11:11:49;;;;;;;18.77;5.00;;;;;;;17.13;43.42;102118.56;4433656;32;20448;-78
2021/03/21 11:19:34;;;;;;;15.32;5.00;;;;;;;19.27;38.54;102111.34;3987159;32;15025324;-78
2021/03/21 11:22:10;;;;;;;15.98;3.90;;;;;;;19.27;38.54;102111.34;4441568;32;20046;-78
2021/03/21 11:24:41;;;;;;;13.35;4.35;;;;;;;19.33;38.47;102092.34;4440980;32;20059;-85
2021/03/21 11:27:13;;;;;;;13.27;4.50;;;;;;;19.41;38.05;102104.28;4439736;32;20029;-81
2021/03/21 11:29:41;;;;;;;19.25;4.72;;;;;;;19.49;37.58;102100.69;4437050;32;20070;-82
2021/03/21 11:37:46;;;;;;;23.58;4.95;;;;;;;19.90;37.00;102099.47;3988920;32;15022754;-79
2021/03/21 11:45:51;;;;;;;14.52;4.57;;;;;;;20.03;36.47;102099.34;3985833;32;15027302;-79
2021/03/21 11:48:35;;;;;;;16.73;4.37;;;;;;;20.03;36.47;102099.34;4435006;32;20525;-78
2021/03/21 11:51:03;;;;;;;17.65;4.05;;;;;;;19.70;36.93;102094.13;4434926;32;20327;-78
2021/03/21 11:53:32;;;;;;;13.43;4.45;;;;;;;19.18;37.40;102091.28;4433863;32;20586;-81
2021/03/21 11:58:44;;;;;;;14.13;3.70;;;;;;;19.66;36.69;102095.53;3988367;32;15016266;-81
2021/03/21 12:01:35;;;;;;;18.08;4.50;;;;;;;19.66;36.69;102095.53;4434466;32;20204;-81
2021/03/21 12:04:03;;;;;;;13.48;4.00;;;;;;;19.26;36.93;102095.50;4420489;32;21132;-79
2021/03/21 12:06:50;;;;;;;10.05;3.20;;;;;;;18.85;37.71;102083.59;4420267;32;20116;-78
2021/03/21 12:12:04;;;;;;;14.93;4.65;;;;;;;19.30;37.18;102075.38;3986395;32;15025850;-80
2021/03/21 12:20:30;;;;;;;9.10;3.47;;;;;;;19.94;36.08;102080.09;3986166;32;15025078;-78
2021/03/21 12:22:57;;;;;;;10.45;3.60;;;;;;;19.94;36.08;102080.09;4436848;32;20065;-83
2021/03/21 12:28:20;;;;;;;14.43;3.50;;;;;;;19.48;36.74;102069.75;3986620;32;15023102;-80
2021/03/21 12:30:51;;;;;;;12.27;3.67;;;;;;;19.48;36.74;102069.75;4431770;32;20077;-79
2021/03/21 12:36:12;;;;;;;12.32;2.97;;;;;;;19.30;37.51;102055.41;3980094;32;15025185;-81
2021/03/21 12:38:44;;;;;;;16.62;3.47;;;;;;;19.30;37.51;102055.41;4435318;32;20082;-81
2021/03/21 12:46:53;;;;;;;15.52;3.12;;;;;;;20.24;35.82;102058.44;3988411;32;15025639;-81
2021/03/21 12:54:49;;;;;;;17.13;3.57;;;;;;;19.38;36.65;102042.44;4001878;31;15021277;-82
2021/03/21 12:57:16;;;;;;;14.57;3.87;;;;;;;19.38;36.65;102042.44;4450494;32;20135;-81
2021/03/21 12:59:56;;;;;;;17.10;4.20;;;;;;;19.02;37.37;102030.78;4452100;32;20469;-78
2021/03/21 13:02:34;;;;;;;12.13;3.70;;;;;;;19.04;37.58;102033.97;4445949;32;20497;-81
2021/03/21 13:05:03;;;;;;;10.65;3.92;;;;;;;18.86;37.52;102033.84;4448482;32;20132;-81
2021/03/21 13:07:29;;;;;;;8.35;2.95;;;;;;;18.71;37.92;102021.34;4449085;32;20440;-78
2021/03/21 13:09:56;;;;;;;13.82;4.25;;;;;;;18.87;37.59;102015.47;4448178;32;20218;-79
2021/03/21 13:12:22;;;;;;;9.75;3.53;;;;;;;19.11;37.28;102016.56;4447408;32;20096;-81
2021/03/21 13:14:49;;;;;;;10.23;3.37;;;;;;;19.44;36.86;102014.84;4443349;32;20085;-80
2021/03/21 13:17:17;;;;;;;13.07;3.80;;;;;;;19.15;37.07;102020.09;4446373;32;20045;-78
2021/03/21 13:19:42;;;;;;;9.25;3.00;;;;;;;19.38;36.67;102025.28;4449273;32;20088;-79
2021/03/21 13:22:10;;;;;;;14.98;3.83;;;;;;;19.08;36.63;102017.47;4450039;32;20126;-81
2021/03/21 13:24:36;;;;;;;10.40;3.78;;;;;;;18.79;37.09;102002.72;4445052;32;20055;-79
2021/03/21 13:27:03;;;;;;;12.73;3.42;;;;;;;18.71;37.82;102010.75;4445017;32;20098;-81
2021/03/21 13:29:30;;;;;;;11.35;3.40;;;;;;;18.60;38.11;102001.00;4445234;32;20089;-81
2021/03/21 13:31:56;;;;;;;8.65;3.12;;;;;;;18.67;38.03;102004.41;4446650;32;20077;-79
2021/03/21 13:34:27;;;;;;;10.80;3.40;;;;;;;18.59;38.06;102005.91;4443383;32;20789;-79
2021/03/21 13:36:53;;;;;;;7.70;3.10;;;;;;;18.55;38.17;101999.56;4441938;32;20455;-81
2021/03/21 13:39:19;;;;;;;15.82;3.87;;;;;;;18.31;38.42;102006.91;4444797;32;20034;-81
2021/03/21 13:41:45;;;;;;;12.48;3.85;;;;;;;18.08;38.96;102003.69;4448247;32;20105;-81
2021/03/21 13:44:11;;;;;;;11.40;3.60;;;;;;;18.12;39.00;101995.81;4449513;32;20461;-79
2021/03/21 13:46:36;;;;;;;11.88;3.55;;;;;;;18.27;38.75;101991.19;4447472;32;20131;-81
2021/03/21 13:49:03;;;;;;;9.38;3.58;;;;;;;18.14;38.66;101994.09;4448462;32;20129;-81
2021/03/21 13:51:29;;;;;;;13.15;3.42;;;;;;;18.28;38.53;101992.81;4444265;32;20089;-80
2021/03/21 13:53:54;;;;;;;17.52;3.55;;;;;;;18.12;38.47;101990.09;4443269;32;20552;-79
2021/03/21 13:56:20;;;;;;;13.77;3.40;;;;;;;17.95;39.21;102000.09;4447133;32;20062;-80
2021/03/21 13:58:46;;;;;;;10.57;3.30;;;;;;;17.70;39.95;101989.53;4443445;32;20056;-78
2021/03/21 14:01:12;;;;;;;16.85;3.92;;;;;;;17.66;40.17;101995.34;4445863;32;20081;-78
2021/03/21 14:03:38;;;;;;;10.63;3.30;;;;;;;17.72;39.56;101996.37;4445981;32;20065;-79
2021/03/21 14:06:04;;;;;;;9.38;3.05;;;;;;;17.61;39.84;101993.06;4438583;32;20059;-80
2021/03/21 14:08:30;;;;;;;8.43;2.62;;;;;;;17.38;40.39;101982.03;4435591;32;20462;-81
2021/03/21 14:10:57;;;;;;;15.35;3.33;;;;;;;17.44;40.51;101985.94;4438905;32;20060;-79
2021/03/21 14:13:24;;;;;;;12.00;4.03;;;;;;;17.54;40.26;101981.12;4436159;32;20049;-80
2021/03/21 14:15:51;;;;;;;10.27;2.95;;;;;;;17.64;40.26;101983.63;4438782;32;20430;-80
2021/03/21 14:18:19;;;;;;;11.80;3.62;;;;;;;17.62;40.30;101968.25;4437308;32;20137;-81
2021/03/21 14:20:47;;;;;;;9.18;2.75;;;;;;;17.63;40.01;101967.78;4438496;32;20464;-80
2021/03/21 14:23:18;;;;;;;9.00;2.78;;;;;;;17.32;40.75;101968.81;4436264;32;20436;-80
2021/03/21 14:25:44;;;;;;;11.95;3.10;;;;;;;16.87;41.18;101959.66;4438560;32;20545;-78
2021/03/21 14:28:12;;;;;;;9.10;3.00;;;;;;;16.86;41.27;101956.03;4436415;32;20052;-81
2021/03/21 14:30:39;;;;;;;8.35;2.67;;;;;;;16.90;41.20;101953.06;4437320;32;20037;-79
2021/03/21 14:33:06;;;;;;;9.07;2.40;;;;;;;16.94;40.97;101946.03;4438515;32;20072;-78
2021/03/21 14:35:35;;;;;;;9.15;2.60;;;;;;;17.08;40.65;101930.56;4434408;32;20025;-80
2021/03/21 14:38:04;;;;;;;14.02;3.87;;;;;;;16.95;40.80;101930.56;4437636;32;20663;-79
2021/03/21 14:40:30;;;;;;;12.23;3.35;;;;;;;16.87;nan;101929.19;4440257;32;20528;-80
2021/03/21 14:42:55;;;;;;;11.10;3.30;;;;;;;16.60;41.86;101936.56;4436280;32;20081;-78
2021/03/21 14:45:21;;;;;;;11.30;3.25;;;;;;;16.56;42.37;101928.13;4436992;32;20451;-80
2021/03/21 14:47:48;;;;;;;11.93;3.75;;;;;;;16.32;43.00;101918.25;4433628;32;20037;-79
2021/03/21 14:50:17;;;;;;;15.18;4.20;;;;;;;16.15;43.29;101916.72;4434468;32;20030;-79
2021/03/21 14:52:46;;;;;;;14.57;3.90;;;;;;;15.98;43.87;101918.00;4435455;32;20084;-78
2021/03/21 14:55:12;;;;;;;14.30;3.53;;;;;;;15.53;45.10;101915.16;4435921;32;20561;-78
2021/03/21 14:57:38;;;;;;;10.93;3.95;;;;;;;15.15;45.90;101913.25;4437680;32;20402;-83
2021/03/21 15:00:07;;;;;;;10.45;4.30;;;;;;;15.09;46.23;101909.34;4435252;32;20046;-83
2021/03/21 15:02:33;;;;;;;11.07;3.83;;;;;;;15.15;46.16;101899.88;4437137;32;20091;-78
2021/03/21 15:04:58;;;;;;;11.52;3.72;;;;;;;15.27;45.87;101904.03;4433251;32;20077;-81
2021/03/21 15:07:24;;;;;;;15.00;4.45;;;;;;;15.53;44.93;101909.47;4435653;32;20073;-79
2021/03/21 15:09:50;;;;;;;8.93;3.72;;;;;;;15.35;45.14;101908.31;4437480;32;20366;-81
2021/03/21 15:12:16;;;;;;;8.68;3.83;;;;;;;15.17;45.38;101903.09;4437676;32;20045;-78
2021/03/21 15:14:42;;;;;;;9.82;4.15;;;;;;;15.12;46.44;101903.59;4432246;32;20507;-80
2021/03/21 15:17:08;;;;;;;9.38;3.85;;;;;;;15.28;47.84;101897.94;4435922;32;20254;-81
2021/03/21 15:19:34;;;;;;;7.93;4.20;;;;;;;15.13;49.22;101898.72;4433689;32;20410;-81
2021/03/21 15:22:00;;;;;;;11.85;4.55;;;;;;;15.00;49.32;101904.28;4434021;32;20099;-79
2021/03/21 15:24:25;;;;;;;12.73;4.87;;;;;;;14.97;49.70;101898.72;4433239;32;20069;-80
2021/03/21 15:26:53;;;;;;;10.95;4.35;;;;;;;15.04;49.37;101892.88;4433161;32;20107;-79
2021/03/21 15:29:19;;;;;;;9.52;4.12;;;;;;;14.77;49.99;101895.13;4433664;32;20048;-78
2021/03/21 15:31:45;;;;;;;12.98;4.50;;;;;;;14.65;50.12;101901.47;4433953;32;20025;-79
2021/03/21 15:34:14;;;;;;;11.48;4.37;;;;;;;14.65;49.07;101890.16;4433958;32;20037;-79
2021/03/21 15:36:41;;;;;;;9.20;3.60;;;;;;;14.86;48.67;101892.50;4431766;32;20092;-78
2021/03/21 15:39:08;;;;;;;15.35;4.28;;;;;;;14.76;49.00;101887.87;4432681;32;20328;-78
2021/03/21 15:41:35;;;;;;;11.57;5.10;;;;;;;14.65;49.40;101885.28;4437372;32;20149;-79
2021/03/21 15:44:03;;;;;;;11.98;5.05;;;;;;;14.80;49.51;101885.75;4435222;32;20056;-78
2021/03/21 15:46:29;;;;;;;12.70;4.50;;;;;;;14.61;49.86;101880.94;4433885;32;20052;-80
2021/03/21 15:48:56;;;;;;;9.15;4.70;;;;;;;14.32;50.09;101883.59;4433352;32;20482;-77